createdAt,value
2019-04-07T00:01:52.643Z,29.65
2019-04-07T00:04:23.695Z,28.38
2019-04-07T00:06:54.471Z,27.40
2019-04-07T00:09:24.979Z,28.07
2019-04-07T00:11:55.368Z,28.25
2019-04-07T00:14:26.130Z,27.35
2019-04-07T00:16:57.480Z,28.12
2019-04-07T00:19:28.357Z,24.70
2019-04-07T00:21:59.329Z,25.05
2019-04-07T00:24:29.766Z,27.37
2019-04-07T00:27:00.165Z,24.70
2019-04-07T00:29:31.600Z,25.77
2019-04-07T00:32:02.541Z,24.45
2019-04-07T00:34:33.030Z,28.07
2019-04-07T00:37:03.419Z,24.10
2019-04-07T00:39:33.780Z,32.85
2019-04-07T00:42:04.171Z,23.90
2019-04-07T00:44:34.607Z,28.65
2019-04-07T00:47:05.239Z,24.72
2019-04-07T00:49:35.756Z,24.55
2019-04-07T00:52:08.350Z,31.17
2019-04-07T00:54:40.241Z,27.05
2019-04-07T00:57:11.236Z,26.37
2019-04-07T00:59:41.598Z,27.05
2019-04-07T01:02:12.285Z,26.20
2019-04-07T01:04:43.010Z,27.48
2019-04-07T01:07:14.534Z,26.80
2019-04-07T01:09:45.330Z,28.00
2019-04-07T01:12:15.706Z,27.15
2019-04-07T01:14:46.686Z,27.22
2019-04-07T01:17:17.128Z,27.42
2019-04-07T01:19:47.483Z,28.47
2019-04-07T01:22:17.870Z,28.10
2019-04-07T01:24:48.452Z,29.92
2019-04-07T01:27:19.209Z,31.73
2019-04-07T01:29:49.647Z,26.57
2019-04-07T01:32:20.303Z,27.02
2019-04-07T01:34:50.685Z,27.35
2019-04-07T01:37:21.083Z,31.90
2019-04-07T01:39:51.441Z,26.52
2019-04-07T01:42:26.436Z,28.42
2019-04-07T01:45:13.822Z,28.52
2019-04-07T01:47:54.948Z,26.33
2019-04-07T01:50:45.298Z,28.75
2019-04-07T01:53:23.336Z,31.20
2019-04-07T01:56:07.622Z,27.22
2019-04-07T01:58:56.148Z,34.95
2019-04-07T02:01:29.663Z,30.90
2019-04-07T02:04:04.961Z,31.62
2019-04-07T02:06:49.516Z,26.90
2019-04-07T02:09:37.947Z,30.00
2019-04-07T02:12:10.411Z,32.83
2019-04-07T02:14:45.578Z,28.05
2019-04-07T02:17:21.015Z,30.50
2019-04-07T02:19:53.363Z,23.98
2019-04-07T02:22:42.406Z,36.50
2019-04-07T02:25:14.659Z,26.50
2019-04-07T02:27:52.394Z,30.60
2019-04-07T02:30:39.618Z,27.95
2019-04-07T02:33:21.088Z,33.50
2019-04-07T02:36:17.821Z,28.73
2019-04-07T02:38:52.463Z,34.83
2019-04-07T02:41:43.630Z,30.97
2019-04-07T02:44:18.075Z,29.15
2019-04-07T02:47:03.050Z,28.00
2019-04-07T02:49:38.084Z,29.60
2019-04-07T02:52:18.822Z,30.65
2019-04-07T02:54:51.506Z,28.10
2019-04-07T02:57:27.072Z,30.82
2019-04-07T02:59:59.655Z,37.35
2019-04-07T03:02:44.042Z,27.15
2019-04-07T03:05:25.024Z,29.75
2019-04-07T03:08:13.279Z,28.60
2019-04-07T03:14:03.656Z,28.32
2019-04-07T03:16:36.044Z,31.50
2019-04-07T03:19:11.075Z,31.60
2019-04-07T03:21:52.513Z,34.15
2019-04-07T03:24:42.982Z,26.68
2019-04-07T03:27:20.840Z,30.25
2019-04-07T03:29:58.901Z,32.50
2019-04-07T03:32:32.987Z,30.12
2019-04-07T03:35:17.295Z,32.98
2019-04-07T03:37:59.319Z,31.87
2019-04-07T03:40:48.249Z,33.50
2019-04-07T03:43:26.399Z,34.25
2019-04-07T03:45:59.085Z,30.30
2019-04-07T03:48:36.990Z,28.73
2019-04-07T03:51:12.049Z,36.30
2019-04-07T03:53:54.010Z,36.55
2019-04-07T03:56:35.663Z,30.32
2019-04-07T03:59:25.332Z,30.75
2019-04-07T04:02:09.867Z,30.45
2019-04-07T04:04:52.108Z,30.60
2019-04-07T04:07:33.066Z,31.05
2019-04-07T04:10:08.434Z,35.38
2019-04-07T04:12:41.604Z,32.45
2019-04-07T04:15:15.107Z,30.88
2019-04-07T04:17:45.749Z,32.13
2019-04-07T04:20:16.303Z,33.92
2019-04-07T04:22:48.573Z,35.23
2019-04-07T04:25:21.277Z,31.77
2019-04-07T04:27:52.816Z,31.00
2019-04-07T04:30:23.580Z,33.30
2019-04-07T04:32:54.298Z,26.35
2019-04-07T04:35:24.839Z,35.75
2019-04-07T04:37:56.388Z,30.52
2019-04-07T04:40:28.046Z,39.50
2019-04-07T04:42:58.575Z,32.08
2019-04-07T04:45:29.584Z,33.38
2019-04-07T04:48:00.226Z,32.30
2019-04-07T04:50:30.627Z,33.85
2019-04-07T04:53:01.972Z,27.60
2019-04-07T04:55:32.456Z,36.42
2019-04-07T04:58:04.159Z,36.85
2019-04-07T05:00:34.649Z,38.73
2019-04-07T05:03:05.046Z,33.85
2019-04-07T05:05:35.696Z,31.70
2019-04-07T05:08:06.835Z,34.00
2019-04-07T05:10:37.290Z,32.98
2019-04-07T05:13:09.657Z,33.13
2019-04-07T05:15:40.185Z,34.05
2019-04-07T05:18:10.855Z,33.35
2019-04-07T05:20:42.684Z,34.50
2019-04-07T05:23:13.234Z,33.15
2019-04-07T05:25:43.809Z,43.58
2019-04-07T05:28:14.304Z,29.63
2019-04-07T05:30:45.332Z,34.35
2019-04-07T05:33:16.548Z,37.80
2019-04-07T05:35:46.957Z,28.83
2019-04-07T05:38:19.069Z,32.08
2019-04-07T05:40:50.053Z,32.10
2019-04-07T05:43:20.510Z,34.13
2019-04-07T05:45:50.980Z,32.55
2019-04-07T05:48:21.582Z,32.65
2019-04-07T05:50:51.964Z,31.23
2019-04-07T05:53:22.319Z,28.83
2019-04-07T05:55:54.139Z,33.42
2019-04-07T05:58:24.772Z,30.50
2019-04-07T06:00:55.263Z,33.63
2019-04-07T06:03:26.283Z,30.20
2019-04-07T06:05:57.882Z,32.93
2019-04-07T06:08:35.550Z,30.88
2019-04-07T06:11:02.100Z,29.63
2019-04-07T06:13:32.956Z,29.60
2019-04-07T06:16:03.335Z,28.87
2019-04-07T06:18:34.254Z,31.20
2019-04-07T06:21:04.865Z,33.70
2019-04-07T06:23:35.446Z,31.45
2019-04-07T06:26:09.274Z,30.77
2019-04-07T06:28:38.121Z,28.30
2019-04-07T06:31:09.496Z,28.47
2019-04-07T06:33:40.440Z,27.93
2019-04-07T06:36:11.564Z,31.90
2019-04-07T06:38:46.459Z,28.92
2019-04-07T06:41:13.995Z,30.17
2019-04-07T06:43:44.360Z,26.25
2019-04-07T06:49:13.800Z,32.83
2019-04-07T06:51:45.230Z,31.68
2019-04-07T06:54:22.248Z,34.45
2019-04-07T06:56:57.037Z,27.55
2019-04-07T06:59:35.248Z,30.12
2019-04-07T07:02:24.000Z,30.10
2019-04-07T07:05:05.539Z,31.82
2019-04-07T07:07:48.318Z,30.25
2019-04-07T07:10:30.157Z,30.05
2019-04-07T07:13:05.094Z,28.57
2019-04-07T07:15:36.458Z,32.67
2019-04-07T07:18:21.295Z,31.15
2019-04-07T07:20:58.042Z,33.02
2019-04-07T07:23:32.021Z,33.23
2019-04-07T07:26:03.307Z,33.00
2019-04-07T07:28:34.818Z,28.35
2019-04-07T07:31:05.397Z,29.80
2019-04-07T07:33:38.393Z,29.42
2019-04-07T07:36:08.040Z,27.20
2019-04-07T07:38:38.546Z,27.32
2019-04-07T07:41:09.166Z,26.90
2019-04-07T07:43:41.498Z,28.45
2019-04-07T07:46:11.967Z,27.60
2019-04-07T07:48:42.346Z,25.40
2019-04-07T07:51:14.304Z,24.37
2019-04-07T07:53:44.983Z,22.27
2019-04-07T07:56:16.056Z,28.90
2019-04-07T07:58:47.233Z,25.25
2019-04-07T08:01:17.903Z,23.45
2019-04-07T08:03:51.731Z,24.18
2019-04-07T08:06:20.588Z,23.47
2019-04-07T08:08:51.469Z,25.55
2019-04-07T08:11:21.893Z,22.30
2019-04-07T08:13:52.519Z,21.45
2019-04-07T08:16:23.031Z,17.23
2019-04-07T08:18:53.397Z,21.55
2019-04-07T08:21:23.797Z,20.60
2019-04-07T08:23:54.613Z,24.18
2019-04-07T08:26:26.008Z,22.45
2019-04-07T08:28:56.584Z,20.65
2019-04-07T08:31:28.259Z,17.30
2019-04-07T08:34:00.038Z,23.27
2019-04-07T08:36:30.680Z,21.25
2019-04-07T08:39:01.039Z,21.25
2019-04-07T08:41:33.469Z,19.30
2019-04-07T08:44:03.916Z,19.45
2019-04-07T08:46:38.651Z,17.95
2019-04-07T08:49:07.655Z,23.40
2019-04-07T08:51:38.131Z,16.95
2019-04-07T08:54:08.588Z,24.15
2019-04-07T08:56:39.128Z,17.15
2019-04-07T08:59:12.203Z,17.82
2019-04-07T09:01:41.711Z,25.52
2019-04-07T09:04:15.131Z,18.00
2019-04-07T09:06:44.885Z,19.37
2019-04-07T09:09:15.689Z,20.35
2019-04-07T09:11:46.947Z,20.70
2019-04-07T09:14:18.394Z,19.17
2019-04-07T09:17:06.941Z,17.90
2019-04-07T09:19:44.878Z,21.00
2019-04-07T09:22:30.681Z,22.93
2019-04-07T09:25:18.189Z,18.30
2019-04-07T09:27:51.033Z,18.10
2019-04-07T09:30:27.268Z,14.53
2019-04-07T09:33:18.071Z,22.00
2019-04-07T09:36:10.133Z,17.85
2019-04-07T09:38:56.957Z,19.52
2019-04-07T09:41:43.965Z,19.80
2019-04-07T09:44:22.302Z,15.60
2019-04-07T09:47:11.263Z,15.80
2019-04-07T09:49:48.489Z,18.90
2019-04-07T09:52:26.169Z,22.42
2019-04-07T09:55:09.369Z,17.98
2019-04-07T09:57:41.939Z,18.07
2019-04-07T10:00:15.953Z,16.60
2019-04-07T10:02:48.105Z,21.05
2019-04-07T10:05:26.475Z,17.07
2019-04-07T10:07:59.461Z,34.43
2019-04-07T10:10:41.443Z,16.07
2019-04-07T10:13:17.821Z,17.67
2019-04-07T10:16:02.868Z,15.72
2019-04-07T10:18:40.683Z,13.15
2019-04-07T10:21:14.299Z,15.90
2019-04-07T10:23:50.482Z,15.10
2019-04-07T10:26:39.288Z,17.12
2019-04-07T10:29:23.159Z,13.62
2019-04-07T10:32:11.333Z,14.65
2019-04-07T10:35:02.459Z,14.28
2019-04-07T10:37:53.217Z,17.15
2019-04-07T10:40:31.154Z,20.57
2019-04-07T10:43:04.092Z,20.68
2019-04-07T10:45:36.236Z,17.60
2019-04-07T10:48:14.369Z,15.43
2019-04-07T10:50:50.218Z,12.50
2019-04-07T10:53:37.320Z,16.20
2019-04-07T10:56:15.342Z,14.40
2019-04-07T10:59:04.346Z,18.35
2019-04-07T11:01:42.320Z,18.32
2019-04-07T11:04:30.683Z,17.40
2019-04-07T11:07:18.784Z,14.60
2019-04-07T11:10:00.113Z,20.40
2019-04-07T11:12:48.357Z,17.32
2019-04-07T11:15:26.986Z,14.70
2019-04-07T11:17:59.278Z,15.45
2019-04-07T11:20:34.057Z,16.23
2019-04-07T11:23:06.255Z,18.12
2019-04-07T11:25:56.868Z,14.47
2019-04-07T11:28:41.226Z,16.20
2019-04-07T11:31:13.317Z,14.13
2019-04-07T11:33:55.359Z,14.15
2019-04-07T11:36:30.974Z,14.30
2019-04-07T11:39:03.104Z,15.43
2019-04-07T11:41:50.405Z,15.38
2019-04-07T11:44:22.912Z,15.38
2019-04-07T11:46:58.263Z,14.43
2019-04-07T11:49:30.267Z,15.78
2019-04-07T11:52:11.502Z,14.95
2019-04-07T11:54:46.406Z,17.20
2019-04-07T11:57:18.440Z,16.80
2019-04-07T12:00:06.386Z,17.25
2019-04-07T12:02:51.839Z,14.75
2019-04-07T12:05:25.086Z,16.60
2019-04-07T12:08:00.632Z,12.30
2019-04-07T12:10:54.192Z,13.85
2019-04-07T12:13:33.680Z,12.23
2019-04-07T12:16:37.970Z,13.93
2019-04-07T12:19:11.325Z,10.28
2019-04-07T12:21:49.401Z,17.20
2019-04-07T12:24:24.933Z,14.90
2019-04-07T12:27:12.655Z,13.55
2019-04-07T12:30:03.124Z,11.50
2019-04-07T12:32:35.947Z,13.85
2019-04-07T12:35:09.285Z,14.95
2019-04-07T12:37:59.121Z,12.28
2019-04-07T12:40:36.725Z,12.63
2019-04-07T12:43:12.068Z,13.60
2019-04-07T12:45:49.359Z,14.28
2019-04-07T12:48:21.409Z,11.48
2019-04-07T12:50:54.121Z,11.85
2019-04-07T12:53:38.974Z,12.05
2019-04-07T12:56:11.407Z,13.38
2019-04-07T12:58:52.670Z,10.80
2019-04-07T13:01:37.148Z,13.58
2019-04-07T13:04:15.463Z,13.25
2019-04-07T13:07:06.826Z,12.65
2019-04-07T13:09:38.856Z,12.82
2019-04-07T13:12:14.052Z,16.27
2019-04-07T13:14:47.541Z,13.80
2019-04-07T13:17:30.637Z,14.00
2019-04-07T13:20:06.198Z,14.85
2019-04-07T13:22:47.571Z,11.30
2019-04-07T13:25:38.591Z,13.65
2019-04-07T13:28:11.008Z,13.75
2019-04-07T13:30:43.330Z,14.18
2019-04-07T13:33:20.387Z,15.93
2019-04-07T13:36:03.859Z,14.95
2019-04-07T13:38:54.505Z,13.32
2019-04-07T13:41:45.939Z,12.98
2019-04-07T13:44:18.364Z,15.15
2019-04-07T13:46:50.396Z,14.30
2019-04-07T13:49:27.432Z,16.57
2019-04-07T13:52:05.306Z,15.83
2019-04-07T13:54:52.638Z,12.33
2019-04-07T13:57:30.993Z,14.25
2019-04-07T14:00:06.411Z,15.48
2019-04-07T14:02:42.174Z,10.88
2019-04-07T14:05:21.226Z,16.37
2019-04-07T14:08:00.147Z,15.13
2019-04-07T14:10:49.262Z,17.02
2019-04-07T14:13:27.494Z,15.43
2019-04-07T14:16:16.026Z,13.28
2019-04-07T14:18:54.594Z,16.60
2019-04-07T14:21:27.497Z,15.23
2019-04-07T14:24:03.566Z,18.73
2019-04-07T14:26:51.857Z,16.87
2019-04-07T14:29:32.813Z,60.65
2019-04-07T14:32:14.208Z,18.05
2019-04-07T14:35:02.206Z,18.87
2019-04-07T14:37:47.297Z,14.58
2019-04-07T14:40:36.500Z,14.00
2019-04-07T14:43:14.676Z,19.75
2019-04-07T14:45:48.516Z,13.72
2019-04-07T14:48:32.630Z,14.03
2019-04-07T14:51:07.544Z,15.10
2019-04-07T14:53:54.819Z,35.75
2019-04-07T14:56:36.821Z,50.00
2019-04-07T14:59:21.952Z,23.02
2019-04-07T15:02:00.073Z,18.15
2019-04-07T15:04:46.678Z,15.95
2019-04-07T15:07:35.283Z,15.15
2019-04-07T15:10:14.619Z,16.42
2019-04-07T15:12:45.741Z,18.30
2019-04-07T15:15:17.037Z,18.02
2019-04-07T15:17:48.801Z,16.30
2019-04-07T15:20:19.662Z,16.95
2019-04-07T15:22:50.082Z,15.15
2019-04-07T15:25:20.455Z,13.60
2019-04-07T15:27:55.250Z,15.15
2019-04-07T15:30:22.909Z,17.25
2019-04-07T15:32:53.305Z,18.30
2019-04-07T15:35:47.867Z,16.67
2019-04-07T15:38:15.370Z,14.53
2019-04-07T15:40:47.080Z,13.32
2019-04-07T15:43:17.575Z,13.55
2019-04-07T15:45:48.700Z,14.28
2019-04-07T15:48:21.452Z,17.37
2019-04-07T15:50:51.776Z,14.50
2019-04-07T15:53:22.247Z,19.73
2019-04-07T15:56:01.148Z,19.35
2019-04-07T15:58:26.762Z,15.75
2019-04-07T16:00:56.763Z,13.03
2019-04-07T16:03:39.568Z,12.40
2019-04-07T16:06:13.673Z,13.28
2019-04-07T16:08:42.019Z,15.20
2019-04-07T16:11:12.643Z,15.15
2019-04-07T16:13:43.051Z,16.73
2019-04-07T16:16:13.518Z,20.15
2019-04-07T16:18:45.392Z,14.68
2019-04-07T16:21:16.280Z,14.93
2019-04-07T16:23:50.310Z,16.97
2019-04-07T16:26:19.694Z,16.27
2019-04-07T16:28:51.979Z,16.32
2019-04-07T16:31:24.281Z,16.37
2019-04-07T16:33:54.523Z,18.67
2019-04-07T16:36:26.382Z,18.10
2019-04-07T16:39:00.417Z,16.35
2019-04-07T16:41:29.140Z,15.72
2019-04-07T16:44:04.214Z,13.28
2019-04-07T16:46:33.809Z,20.05
2019-04-07T16:49:04.544Z,16.32
2019-04-07T16:51:35.149Z,15.72
2019-04-07T16:54:08.718Z,21.73
2019-04-07T16:56:38.039Z,13.20
2019-04-07T16:59:10.126Z,14.05
2019-04-07T17:01:40.500Z,13.62
2019-04-07T17:04:10.910Z,14.70
2019-04-07T17:06:42.139Z,16.45
2019-04-07T17:09:17.762Z,19.67
2019-04-07T17:11:49.264Z,14.90
2019-04-07T17:14:20.352Z,18.35
2019-04-07T17:16:51.400Z,14.98
2019-04-07T17:19:25.642Z,16.97
2019-04-07T17:21:59.099Z,13.70
2019-04-07T17:24:30.542Z,18.98
2019-04-07T17:27:03.065Z,14.00
2019-04-07T17:29:35.026Z,13.75
2019-04-07T17:32:07.905Z,15.35
2019-04-07T17:34:41.703Z,13.28
2019-04-07T17:37:12.104Z,14.28
2019-04-07T17:39:45.021Z,16.25
2019-04-07T17:42:18.438Z,14.30
2019-04-07T17:44:59.783Z,15.32
2019-04-07T17:47:41.656Z,13.05
2019-04-07T17:50:33.750Z,16.17
2019-04-07T17:53:06.504Z,17.00
2019-04-07T17:55:41.029Z,17.15
2019-04-07T17:58:16.366Z,16.15
2019-04-07T18:00:50.692Z,16.02
2019-04-07T18:03:51.934Z,18.10
2019-04-07T18:06:24.414Z,14.93
2019-04-07T18:09:11.673Z,15.08
2019-04-07T18:11:41.610Z,18.17
2019-04-07T18:14:14.282Z,15.72
2019-04-07T18:16:46.956Z,16.95
2019-04-07T18:19:36.253Z,16.40
2019-04-07T18:22:22.615Z,17.65
2019-04-07T18:24:59.843Z,17.48
2019-04-07T18:27:34.635Z,21.68
2019-04-07T18:30:14.540Z,21.23
2019-04-07T18:32:47.598Z,21.77
2019-04-07T18:35:29.794Z,19.82
2019-04-07T18:38:09.120Z,22.60
2019-04-07T18:40:44.030Z,19.62
2019-04-07T18:43:20.278Z,19.55
2019-04-07T18:46:08.532Z,21.30
2019-04-07T18:48:46.530Z,17.10
2019-04-07T18:51:22.020Z,22.25
2019-04-07T18:54:11.135Z,20.50
2019-04-07T18:56:47.447Z,26.27
2019-04-07T18:59:20.249Z,20.95
2019-04-07T19:01:53.346Z,21.27
2019-04-07T19:04:44.536Z,19.62
2019-04-07T19:07:17.253Z,17.23
2019-04-07T19:10:06.440Z,17.23
2019-04-07T19:12:33.203Z,20.77
2019-04-07T19:15:23.009Z,16.25
2019-04-07T19:18:10.005Z,15.43
2019-04-07T19:20:42.986Z,17.70
2019-04-07T19:23:18.430Z,18.40
2019-04-07T19:25:56.619Z,19.87
2019-04-07T19:28:43.950Z,18.30
2019-04-07T19:31:21.954Z,18.42
2019-04-07T19:36:56.808Z,15.70
2019-04-07T19:39:40.557Z,16.35
2019-04-07T19:42:14.450Z,17.42
2019-04-07T19:44:52.061Z,20.15
2019-04-07T19:47:23.282Z,20.17
2019-04-07T19:49:55.446Z,18.05
2019-04-07T19:52:34.197Z,17.75
2019-04-07T19:55:24.967Z,16.52
2019-04-07T19:58:09.777Z,17.52
2019-04-07T20:01:01.218Z,17.87
2019-04-07T20:03:32.039Z,22.22
2019-04-07T20:06:23.925Z,15.43
2019-04-07T20:09:00.123Z,17.40
2019-04-07T20:11:48.417Z,21.65
2019-04-07T20:14:29.205Z,18.57
2019-04-07T20:17:16.450Z,21.35
2019-04-07T20:20:12.283Z,34.03
2019-04-07T20:23:00.803Z,28.15
2019-04-07T20:25:35.905Z,22.58
2019-04-07T20:28:17.460Z,21.35
2019-04-07T20:31:05.722Z,21.23
2019-04-07T20:33:40.923Z,20.80
2019-04-07T20:36:24.183Z,18.15
2019-04-07T20:39:07.371Z,17.10
2019-04-07T20:41:56.767Z,20.57
2019-04-07T20:44:33.032Z,20.82
2019-04-07T20:47:19.685Z,18.17
2019-04-07T20:49:54.400Z,18.80
2019-04-07T20:52:42.784Z,30.20
2019-04-07T20:55:15.588Z,32.38
2019-04-07T20:58:14.433Z,22.27
2019-04-07T21:00:57.618Z,21.77
2019-04-07T21:03:26.504Z,19.10
2019-04-07T21:06:13.142Z,17.73
2019-04-07T21:09:03.623Z,22.32
2019-04-07T21:11:40.489Z,17.92
2019-04-07T21:14:11.171Z,18.70
2019-04-07T21:16:44.341Z,18.02
2019-04-07T21:19:16.678Z,18.55
2019-04-07T21:21:49.318Z,22.15
2019-04-07T21:24:25.452Z,19.42
2019-04-07T21:27:06.589Z,20.97
2019-04-07T21:29:41.439Z,17.80
2019-04-07T21:32:31.229Z,21.68
2019-04-07T21:35:19.288Z,22.27
2019-04-07T21:37:57.102Z,19.05
2019-04-07T21:40:42.142Z,21.02
2019-04-07T21:43:29.356Z,19.55
2019-04-07T21:46:22.259Z,20.90
2019-04-07T21:48:51.577Z,20.40
2019-04-07T21:51:38.527Z,22.55
2019-04-07T21:54:14.004Z,18.15
2019-04-07T21:56:46.103Z,19.00
2019-04-07T21:59:19.701Z,20.75
2019-04-07T22:01:57.951Z,19.27
2019-04-07T22:04:42.214Z,22.58
2019-04-07T22:07:23.372Z,19.32
2019-04-07T22:09:55.433Z,22.30
2019-04-07T22:12:29.561Z,27.32
2019-04-07T22:14:57.886Z,25.52
2019-04-07T22:17:32.732Z,21.10
2019-04-07T22:20:00.606Z,20.27
2019-04-07T22:22:31.130Z,19.87
2019-04-07T22:25:05.981Z,20.32
2019-04-07T22:27:33.610Z,20.35
2019-04-07T22:30:08.025Z,24.10
2019-04-07T22:32:38.620Z,20.50
2019-04-07T22:35:10.535Z,24.30
2019-04-07T22:37:41.826Z,23.22
2019-04-07T22:40:21.415Z,22.35
2019-04-07T22:42:51.781Z,21.95
2019-04-07T22:45:27.776Z,20.95
2019-04-07T22:47:55.073Z,24.60
2019-04-07T22:50:25.611Z,20.55
2019-04-07T22:52:55.967Z,21.15
2019-04-07T22:55:27.025Z,19.80
2019-04-07T22:57:57.861Z,23.62
2019-04-07T23:00:28.785Z,20.68
2019-04-07T23:02:59.485Z,20.75
2019-04-07T23:05:29.917Z,26.45
2019-04-07T23:08:00.299Z,22.07
2019-04-07T23:10:31.570Z,22.90
2019-04-07T23:13:03.615Z,20.77
2019-04-07T23:15:41.287Z,19.65
2019-04-07T23:18:07.360Z,24.72
2019-04-07T23:20:37.741Z,23.87
2019-04-07T23:23:08.858Z,23.65
2019-04-07T23:25:39.234Z,21.42
2019-04-07T23:28:10.291Z,24.30
2019-04-07T23:30:41.859Z,25.15
2019-04-07T23:33:12.507Z,22.30
2019-04-07T23:35:42.821Z,21.40
2019-04-07T23:38:13.414Z,23.47
2019-04-07T23:40:43.844Z,24.40
2019-04-07T23:43:15.214Z,24.55
2019-04-07T23:45:45.764Z,22.90
2019-04-07T23:48:16.140Z,27.98
2019-04-07T23:50:46.597Z,20.72
2019-04-07T23:54:07.452Z,23.15
2019-04-07T23:56:39.782Z,21.97
2019-04-07T23:59:10.393Z,20.72
